Bitte eine E-Mail-Adresse für das Benutzerkonto eingeben. Ein Bestätigungscode wird dann an diese verschickt. Sobald der Code vorliegt, kann ein neues Passwort für das Benutzerkonto festgelegt werden.

WebCam

  
Kamera Halle
Kamera Vorfeld

GPS Triangle WM Sports Class

AeroClub Göppingen-Salach e.V.
Ausrichter der Modellflug
GPS Triangle-WM 2020

Wetter EDDS

METAR

EDDS 221020Z VRB02KT 9999 FEW004 04/01 Q1008 NOSIG =
AMD EDDS 220636Z 2206/2306 VRB03KT 6000 FEW003 PROB30 TEMPO 2206/2210 1500 BR BKN003 BECMG 2211/2214 06005KT


TAF

AMD EDDS 220636Z 2206/2306 VRB03KT 6000 FEW003 PROB30 TEMPO 2206/2210 1500 BR BKN003 BECMG 2211/2214 06005KT =


SR/SS

06:39 / 15:35 UTC
(EDSO 22-11-2019)